createdAt,value
2023-02-06T00:00:31.675Z,48.88
2023-02-06T00:04:53.715Z,53.50
2023-02-06T00:08:55.698Z,52.20
2023-02-06T00:12:57.946Z,51.53
2023-02-06T00:17:01.099Z,50.33
2023-02-06T00:21:03.372Z,51.80
2023-02-06T00:25:06.039Z,54.47
2023-02-06T00:29:08.120Z,52.95
2023-02-06T00:33:10.285Z,53.05
2023-02-06T00:37:12.383Z,54.03
2023-02-06T00:41:14.476Z,57.63
2023-02-06T00:45:16.911Z,60.05
2023-02-06T00:49:18.939Z,58.25
2023-02-06T00:53:22.121Z,58.80
2023-02-06T00:57:24.112Z,56.55
2023-02-06T01:01:27.329Z,56.05
2023-02-06T01:05:30.172Z,52.05
2023-02-06T01:09:32.438Z,59.10
2023-02-06T01:13:34.548Z,55.67
2023-02-06T01:17:37.770Z,54.55
2023-02-06T01:21:39.929Z,59.08
2023-02-06T01:25:41.926Z,56.97
2023-02-06T01:29:44.234Z,56.55
2023-02-06T01:33:47.682Z,57.85
2023-02-06T01:37:49.780Z,54.38
2023-02-06T01:41:51.965Z,62.70
2023-02-06T01:45:54.294Z,58.05
2023-02-06T01:49:56.270Z,62.17
2023-02-06T01:54:02.385Z,58.90
2023-02-06T01:58:07.666Z,59.97
2023-02-06T02:02:11.180Z,63.10
2023-02-06T02:06:16.750Z,60.88
2023-02-06T02:10:18.849Z,66.55
2023-02-06T02:14:21.080Z,66.28
2023-02-06T02:18:37.800Z,67.70
2023-02-06T02:23:01.309Z,65.53
2023-02-06T02:27:12.239Z,61.17
2023-02-06T02:31:39.401Z,62.42
2023-02-06T02:35:55.453Z,63.90
2023-02-06T02:40:16.212Z,68.43
2023-02-06T02:44:39.968Z,64.47
2023-02-06T02:48:46.170Z,64.88
2023-02-06T02:52:48.751Z,63.92
2023-02-06T02:56:50.799Z,69.38
2023-02-06T03:00:59.054Z,71.03
2023-02-06T03:05:05.905Z,73.32
2023-02-06T03:09:23.044Z,63.08
2023-02-06T03:13:44.757Z,63.83
2023-02-06T03:17:53.955Z,68.03
2023-02-06T03:21:56.195Z,66.03
2023-02-06T03:26:02.694Z,67.00
2023-02-06T03:30:08.226Z,66.95
2023-02-06T03:34:17.011Z,64.95
2023-02-06T03:38:19.074Z,64.88
2023-02-06T03:42:22.657Z,74.65
2023-02-06T03:46:28.572Z,80.95
2023-02-06T03:50:32.690Z,66.63
2023-02-06T03:54:39.602Z,67.07
2023-02-06T03:58:41.716Z,48.42
2023-02-06T04:02:47.663Z,59.95
2023-02-06T04:06:49.656Z,60.92
2023-02-06T04:10:51.733Z,59.17
2023-02-06T04:14:53.952Z,55.03
2023-02-06T04:18:56.224Z,58.67
2023-02-06T04:22:58.863Z,57.92
2023-02-06T04:27:00.925Z,58.85
2023-02-06T04:31:03.178Z,59.33
2023-02-06T04:35:05.603Z,58.92
2023-02-06T04:39:08.009Z,59.70
2023-02-06T04:43:10.128Z,63.20
2023-02-06T04:47:12.164Z,65.13
2023-02-06T04:51:14.614Z,62.80
2023-02-06T04:55:16.726Z,64.80
2023-02-06T04:59:18.762Z,62.85
2023-02-06T05:03:20.809Z,63.20
2023-02-06T05:07:22.892Z,68.90
2023-02-06T05:11:25.225Z,66.70
2023-02-06T05:15:27.200Z,67.22
2023-02-06T05:19:29.194Z,64.10
2023-02-06T05:23:32.497Z,68.03
2023-02-06T05:27:34.520Z,64.63
2023-02-06T05:31:36.685Z,62.40
2023-02-06T05:35:40.861Z,64.57
2023-02-06T05:39:42.868Z,63.90
2023-02-06T05:43:44.909Z,66.40
2023-02-06T05:47:47.008Z,62.13
2023-02-06T05:51:49.065Z,65.05
2023-02-06T05:55:51.069Z,69.43
2023-02-06T05:59:53.084Z,64.95
2023-02-06T06:03:55.707Z,64.80
2023-02-06T06:07:57.768Z,62.22
2023-02-06T06:11:59.798Z,63.95
2023-02-06T06:16:01.967Z,65.03
2023-02-06T06:20:04.566Z,64.60
2023-02-06T06:24:06.760Z,64.75
2023-02-06T06:28:08.846Z,66.95
2023-02-06T06:32:11.006Z,65.00
2023-02-06T06:36:14.587Z,74.15
2023-02-06T06:40:16.975Z,68.28
2023-02-06T06:44:18.940Z,63.85
2023-02-06T06:48:21.142Z,73.15
2023-02-06T06:52:25.666Z,76.82
2023-02-06T06:56:27.830Z,85.82
2023-02-06T07:00:29.848Z,80.05
2023-02-06T07:04:33.137Z,119.00
2023-02-06T07:08:36.002Z,101.10
2023-02-06T07:12:38.789Z,90.55
2023-02-06T07:16:40.929Z,91.15
2023-02-06T07:20:42.937Z,78.55
2023-02-06T07:24:44.991Z,77.82
2023-02-06T07:28:49.187Z,76.70
2023-02-06T07:32:52.036Z,74.63
2023-02-06T07:36:53.983Z,74.68
2023-02-06T07:41:01.732Z,73.53
2023-02-06T07:45:04.648Z,73.90
2023-02-06T07:49:06.738Z,75.80
2023-02-06T07:53:08.786Z,71.93
2023-02-06T07:57:10.791Z,67.93
2023-02-06T08:01:13.111Z,71.82
2023-02-06T08:05:15.196Z,69.05
2023-02-06T08:09:17.536Z,68.05
2023-02-06T08:13:22.828Z,72.38
2023-02-06T08:17:24.895Z,85.55
2023-02-06T08:21:27.344Z,66.72
2023-02-06T08:25:29.488Z,53.22
2023-02-06T08:29:31.431Z,49.42
2023-02-06T08:33:33.472Z,50.40
2023-02-06T08:37:35.529Z,56.95
2023-02-06T08:41:39.068Z,42.85
2023-02-06T08:45:41.083Z,45.92
2023-02-06T08:49:43.082Z,41.95
2023-02-06T08:53:45.078Z,41.85
2023-02-06T08:57:46.766Z,35.95
2023-02-06T09:01:49.369Z,51.25
2023-02-06T09:05:52.682Z,36.22
2023-02-06T09:09:56.010Z,35.38
2023-02-06T09:14:00.129Z,31.35
2023-02-06T09:18:02.232Z,30.40
2023-02-06T09:22:05.865Z,30.98
2023-02-06T09:26:10.469Z,30.50
2023-02-06T09:30:15.669Z,29.77
2023-02-06T09:34:17.688Z,27.98
2023-02-06T09:38:19.634Z,29.20
2023-02-06T09:42:31.419Z,22.77
2023-02-06T09:46:36.950Z,25.00
2023-02-06T09:50:55.887Z,27.92
2023-02-06T09:55:10.859Z,29.13
2023-02-06T09:59:28.031Z,23.77
2023-02-06T10:03:38.607Z,23.52
2023-02-06T10:07:59.149Z,24.20
2023-02-06T10:12:09.308Z,21.95
2023-02-06T10:16:34.907Z,25.10
2023-02-06T10:20:44.786Z,23.02
2023-02-06T10:25:11.222Z,24.67
2023-02-06T10:29:40.819Z,26.33
2023-02-06T10:34:07.279Z,23.25
2023-02-06T10:38:57.501Z,24.00
2023-02-06T10:43:25.770Z,24.35
2023-02-06T10:47:36.194Z,21.58
2023-02-06T10:51:42.647Z,20.48
2023-02-06T10:55:51.435Z,18.35
2023-02-06T10:59:58.021Z,18.88
2023-02-06T11:04:05.941Z,15.48
2023-02-06T11:08:15.788Z,20.90
2023-02-06T11:12:29.803Z,18.15
2023-02-06T11:16:36.156Z,14.27
2023-02-06T11:20:41.952Z,13.93
2023-02-06T11:25:03.528Z,11.57
2023-02-06T11:29:22.238Z,14.35
2023-02-06T11:37:40.036Z,14.77
2023-02-06T11:41:57.744Z,12.43
2023-02-06T11:46:18.552Z,13.33
2023-02-06T11:50:35.489Z,15.35
2023-02-06T11:54:37.636Z,17.63
2023-02-06T11:58:39.642Z,24.40
2023-02-06T12:02:50.674Z,27.45
2023-02-06T12:07:03.616Z,30.67
2023-02-06T12:11:13.440Z,35.33
2023-02-06T12:15:43.701Z,25.50
2023-02-06T12:19:56.320Z,27.60
2023-02-06T12:24:02.510Z,26.33
2023-02-06T12:28:13.172Z,28.05
2023-02-06T12:32:24.159Z,24.70
2023-02-06T12:36:39.878Z,23.80
2023-02-06T12:41:00.542Z,25.75
2023-02-06T12:45:12.425Z,25.83
2023-02-06T12:49:26.068Z,27.20
2023-02-06T12:53:40.320Z,27.35
2023-02-06T12:57:42.867Z,28.02
2023-02-06T13:02:05.372Z,25.25
2023-02-06T13:06:22.148Z,27.42
2023-02-06T13:10:26.044Z,23.40
2023-02-06T13:14:29.611Z,25.85
2023-02-06T13:18:52.523Z,27.73
2023-02-06T13:23:14.674Z,23.20
2023-02-06T13:27:17.070Z,22.05
2023-02-06T13:31:25.287Z,16.98
2023-02-06T13:35:30.613Z,19.58
2023-02-06T13:39:33.324Z,21.20
2023-02-06T13:43:36.446Z,24.73
2023-02-06T13:47:59.137Z,33.22
2023-02-06T13:52:32.296Z,35.25
2023-02-06T13:56:47.553Z,23.02
2023-02-06T14:00:51.912Z,19.45
2023-02-06T14:04:54.879Z,16.58
2023-02-06T14:09:16.534Z,19.95
2023-02-06T14:13:33.193Z,22.77
2023-02-06T14:17:56.136Z,29.73
2023-02-06T14:22:11.260Z,18.88
2023-02-06T14:26:21.160Z,30.23
2023-02-06T14:30:41.485Z,25.85
2023-02-06T14:35:04.607Z,36.55
2023-02-06T14:39:32.746Z,36.78
2023-02-06T14:43:41.049Z,39.07
2023-02-06T14:47:44.226Z,71.72
2023-02-06T14:51:50.799Z,38.33
2023-02-06T14:56:05.261Z,28.00
2023-02-06T15:00:18.585Z,20.90
2023-02-06T15:04:28.943Z,22.30
2023-02-06T15:08:33.184Z,27.05
2023-02-06T15:12:36.622Z,32.90
2023-02-06T15:16:50.102Z,36.15
2023-02-06T15:20:56.069Z,35.33
2023-02-06T15:25:10.286Z,43.15
2023-02-06T15:29:23.010Z,44.72
2023-02-06T15:33:28.837Z,46.35
2023-02-06T15:37:34.147Z,55.03
2023-02-06T15:41:37.606Z,68.85
2023-02-06T15:45:41.405Z,84.82
2023-02-06T15:49:47.178Z,68.25
2023-02-06T15:53:51.701Z,69.60
2023-02-06T15:57:56.988Z,64.85
2023-02-06T16:01:59.759Z,64.45
2023-02-06T16:06:01.835Z,66.47
2023-02-06T16:10:22.530Z,78.85
2023-02-06T16:14:35.591Z,95.60
2023-02-06T16:18:39.729Z,71.30
2023-02-06T16:22:41.826Z,73.35
2023-02-06T16:26:52.417Z,79.70
2023-02-06T16:30:59.078Z,84.72
2023-02-06T16:35:01.379Z,108.97
2023-02-06T16:39:04.765Z,87.80
2023-02-06T16:43:11.471Z,78.25
2023-02-06T16:47:16.147Z,81.60
2023-02-06T16:51:21.072Z,76.78
2023-02-06T16:55:25.920Z,94.35
2023-02-06T16:59:28.044Z,93.63
2023-02-06T17:03:32.545Z,83.88
2023-02-06T17:07:35.183Z,91.82
2023-02-06T17:11:37.699Z,84.18
2023-02-06T17:15:39.936Z,77.20
2023-02-06T17:19:42.233Z,85.68
2023-02-06T17:23:44.905Z,98.03
2023-02-06T17:27:47.084Z,106.40
2023-02-06T17:31:49.259Z,91.93
2023-02-06T17:35:51.420Z,99.22
2023-02-06T17:39:53.727Z,91.88
2023-02-06T17:43:55.736Z,96.78
2023-02-06T17:47:57.895Z,117.78
2023-02-06T17:52:00.027Z,104.25
2023-02-06T17:56:12.869Z,107.13
2023-02-06T18:00:17.897Z,97.95
2023-02-06T18:04:21.386Z,98.05
2023-02-06T18:08:23.665Z,102.47
2023-02-06T18:12:25.979Z,99.30
2023-02-06T18:16:29.027Z,83.72
2023-02-06T18:20:31.520Z,84.38
2023-02-06T18:24:33.668Z,111.72
2023-02-06T18:28:39.374Z,80.72
2023-02-06T18:32:41.532Z,79.57
2023-02-06T18:36:43.565Z,83.40
2023-02-06T18:40:46.758Z,83.80
2023-02-06T18:44:48.818Z,89.68
2023-02-06T18:48:50.860Z,77.35
2023-02-06T18:52:52.966Z,81.35
2023-02-06T18:56:55.044Z,80.82
2023-02-06T19:00:57.129Z,74.60
2023-02-06T19:04:59.301Z,80.38
2023-02-06T19:09:02.245Z,85.60
2023-02-06T19:13:05.034Z,83.60
2023-02-06T19:17:07.224Z,76.72
2023-02-06T19:21:16.204Z,81.72
2023-02-06T19:25:19.324Z,73.55
2023-02-06T19:29:34.726Z,70.50
2023-02-06T19:33:39.218Z,75.65
2023-02-06T19:37:41.350Z,71.15
2023-02-06T19:41:43.356Z,66.13
2023-02-06T19:45:45.398Z,60.10
2023-02-06T19:49:51.501Z,58.90
2023-02-06T19:53:54.962Z,53.83
2023-02-06T19:57:57.151Z,51.63
2023-02-06T20:02:01.641Z,49.70
2023-02-06T20:06:10.510Z,53.63
2023-02-06T20:10:12.522Z,52.30
2023-02-06T20:14:14.781Z,57.88
2023-02-06T20:18:16.832Z,55.47
2023-02-06T20:22:19.061Z,57.65
2023-02-06T20:26:22.451Z,64.75
2023-02-06T20:30:24.647Z,67.57
2023-02-06T20:34:27.189Z,69.88
2023-02-06T20:38:29.665Z,66.65
2023-02-06T20:42:32.306Z,67.80
2023-02-06T20:46:36.186Z,56.45
2023-02-06T20:50:38.491Z,59.22
2023-02-06T20:54:41.056Z,55.40
2023-02-06T20:58:44.308Z,51.22
2023-02-06T21:02:46.533Z,44.00
2023-02-06T21:06:49.966Z,50.28
2023-02-06T21:10:53.189Z,53.50
2023-02-06T21:14:55.740Z,49.28
2023-02-06T21:18:58.788Z,52.58
2023-02-06T21:23:00.873Z,49.65
2023-02-06T21:27:02.933Z,49.03
2023-02-06T21:31:08.119Z,49.20
2023-02-06T21:35:10.662Z,48.08
2023-02-06T21:39:20.260Z,50.10
2023-02-06T21:43:22.369Z,51.08
2023-02-06T21:47:24.359Z,51.35
2023-02-06T21:51:27.078Z,52.40
2023-02-06T21:55:31.572Z,64.65
2023-02-06T21:59:34.286Z,59.13
2023-02-06T22:03:36.379Z,60.50
2023-02-06T22:07:38.552Z,65.68
2023-02-06T22:11:41.463Z,108.28
2023-02-06T22:15:51.373Z,89.45
2023-02-06T22:19:54.417Z,71.63
2023-02-06T22:23:58.972Z,80.07
2023-02-06T22:28:01.143Z,87.18
2023-02-06T22:32:04.678Z,102.30
2023-02-06T22:36:09.419Z,82.03
2023-02-06T22:40:11.635Z,73.25
2023-02-06T22:44:17.813Z,72.50
2023-02-06T22:48:20.039Z,103.13
2023-02-06T22:52:40.728Z,73.70
2023-02-06T22:56:43.652Z,73.43
2023-02-06T23:00:45.941Z,70.15
2023-02-06T23:04:48.146Z,80.90
2023-02-06T23:08:50.325Z,80.82
2023-02-06T23:12:52.494Z,56.83
2023-02-06T23:16:54.667Z,57.78
2023-02-06T23:21:02.931Z,51.28
2023-02-06T23:25:05.217Z,53.22
2023-02-06T23:29:08.273Z,51.38
2023-02-06T23:33:10.873Z,50.38
2023-02-06T23:37:13.476Z,57.78
2023-02-06T23:41:20.711Z,48.40
2023-02-06T23:45:22.759Z,53.75
2023-02-06T23:49:24.899Z,63.28
2023-02-06T23:53:27.544Z,53.50
2023-02-06T23:57:29.266Z,53.67
